Time;durP1;ratioP1;P1;durP2;ratioP2;P2;SDS_P1;SDS_P2;PMS_P1;PMS_P2;Temp;Humidity;BMP_temperature;BMP_pressure;BME280_temperature;BME280_humidity;BME280_pressure;Samples;Min_cycle;Max_cycle;Signal;HPM_P1;HPM_P2
2021/07/20 00:01:46;;;;;;;1.58;1.10;;;15.90;74.50;;;;;;4938637;28;96531;-38
2021/07/20 00:04:18;;;;;;;1.17;1.00;;;15.90;75.10;;;;;;4931863;28;95763;-39
2021/07/20 00:06:50;;;;;;;2.30;1.25;;;16.00;75.40;;;;;;4943456;28;95679;-37
2021/07/20 00:09:20;;;;;;;1.95;1.30;;;16.00;75.10;;;;;;4940448;28;95889;-37
2021/07/20 00:11:51;;;;;;;1.13;1.10;;;16.00;75.30;;;;;;4942881;28;95748;-37
2021/07/20 00:14:22;;;;;;;1.50;1.40;;;16.10;75.20;;;;;;4940216;28;95980;-44
2021/07/20 00:16:55;;;;;;;1.38;1.27;;;16.10;74.90;;;;;;4939495;28;95824;-46
2021/07/20 00:19:27;;;;;;;1.63;1.40;;;16.10;74.90;;;;;;4940349;28;96972;-45
2021/07/20 00:21:58;;;;;;;1.55;1.25;;;16.20;75.20;;;;;;4941800;28;95793;-46
2021/07/20 00:24:29;;;;;;;;;;;16.20;75.40;;;;;;4941014;28;96147;-45
2021/07/20 00:27:01;;;;;;;1.30;1.20;;;16.20;75.00;;;;;;4945578;28;95755;-46
2021/07/20 00:29:31;;;;;;;3.63;1.30;;;16.30;75.30;;;;;;4940723;28;95882;-45
2021/07/20 00:32:05;;;;;;;1.42;1.15;;;16.30;75.40;;;;;;4920680;28;97352;-46
2021/07/20 00:34:40;;;;;;;2.95;1.30;;;16.40;75.00;;;;;;4939900;28;95889;-44
2021/07/20 00:37:11;;;;;;;1.25;1.10;;;16.40;74.90;;;;;;4941909;28;95795;-46
2021/07/20 00:39:42;;;;;;;1.30;1.20;;;16.40;74.30;;;;;;4937840;28;96792;-44
2021/07/20 00:42:14;;;;;;;1.52;1.20;;;16.50;74.40;;;;;;4941857;28;96019;-46
2021/07/20 00:44:45;;;;;;;1.30;1.05;;;16.50;74.20;;;;;;4939700;28;96008;-46
2021/07/20 00:47:15;;;;;;;1.20;1.10;;;16.40;74.10;;;;;;4930048;28;96102;-45
2021/07/20 00:49:47;;;;;;;2.97;1.50;;;16.50;74.00;;;;;;4932377;28;96362;-45
2021/07/20 00:52:17;;;;;;;1.50;1.13;;;16.50;73.90;;;;;;4943095;28;95323;-46
2021/07/20 00:54:48;;;;;;;0.93;0.90;;;16.50;73.80;;;;;;4933603;28;98566;-46
2021/07/20 00:57:20;;;;;;;;;;;16.50;73.60;;;;;;4935301;28;95796;-46
2021/07/20 00:59:54;;;;;;;0.88;0.88;;;16.50;73.50;;;;;;4940969;28;96532;-46
2021/07/20 01:02:28;;;;;;;1.20;1.10;;;16.50;73.50;;;;;;4926404;28;95582;-46
2021/07/20 01:04:58;;;;;;;1.20;1.00;;;16.50;73.30;;;;;;4941851;28;95395;-46
2021/07/20 01:07:30;;;;;;;1.15;0.90;;;16.60;73.80;;;;;;4925708;28;96138;-46
2021/07/20 01:10:06;;;;;;;1.85;0.95;;;16.50;73.20;;;;;;4935529;28;97138;-46
2021/07/20 01:12:39;;;;;;;0.80;0.80;;;16.50;73.40;;;;;;4939828;28;96094;-46
2021/07/20 01:15:11;;;;;;;1.33;0.77;;;16.50;73.20;;;;;;4941545;28;95970;-46
2021/07/20 01:17:46;;;;;;;1.10;1.00;;;16.50;73.10;;;;;;4940086;28;96585;-46
2021/07/20 01:20:22;;;;;;;0.93;0.80;;;16.50;73.10;;;;;;4927275;28;96296;-46
2021/07/20 01:23:16;;;;;;;1.00;0.60;;;16.50;73.10;;;;;;4931694;28;96046;-46
2021/07/20 01:25:51;;;;;;;0.80;0.80;;;16.60;73.00;;;;;;4924382;28;95760;-45
2021/07/20 01:28:25;;;;;;;1.23;1.00;;;16.50;73.10;;;;;;4942238;28;96628;-46
2021/07/20 01:31:07;;;;;;;0.85;0.85;;;16.60;73.00;;;;;;4938201;28;98575;-45
2021/07/20 01:33:44;;;;;;;0.60;0.60;;;16.60;72.90;;;;;;4940500;28;96045;-47
2021/07/20 01:36:19;;;;;;;1.27;0.80;;;16.60;72.80;;;;;;4923954;28;96711;-47
2021/07/20 01:38:56;;;;;;;0.90;0.70;;;16.50;72.90;;;;;;4946117;28;96362;-47
2021/07/20 01:41:34;;;;;;;1.33;0.77;;;16.60;72.80;;;;;;4940131;28;97000;-47
2021/07/20 01:44:11;;;;;;;1.30;1.00;;;16.50;72.70;;;;;;4943239;28;95970;-47
2021/07/20 01:46:48;;;;;;;1.10;1.00;;;16.50;72.60;;;;;;4931769;28;96013;-47
2021/07/20 01:49:20;;;;;;;1.40;1.00;;;16.40;72.70;;;;;;4937341;28;96354;-46
2021/07/20 01:52:03;;;;;;;1.48;1.10;;;16.40;72.90;;;;;;4932662;28;96894;-47
2021/07/20 01:54:37;;;;;;;1.77;0.98;;;16.30;73.20;;;;;;4946331;28;95953;-46
2021/07/20 01:57:09;;;;;;;1.10;1.00;;;16.20;73.20;;;;;;4943094;28;95404;-49
2021/07/20 02:00:18;;;;;;;2.60;1.42;;;16.10;73.30;;;;;;4915219;28;96979;-47
2021/07/20 02:09:02;;;;;;;0.90;0.90;;;16.00;74.00;;;;;;4937702;28;95996;-47
2021/07/20 02:11:36;;;;;;;1.58;1.00;;;16.00;73.90;;;;;;4926401;28;97196;-45
2021/07/20 02:14:41;;;;;;;3.15;1.33;;;16.20;73.60;;;;;;4925329;28;95970;-46
2021/07/20 02:17:33;;;;;;;1.98;0.93;;;16.20;73.30;;;;;;4940716;28;95970;-43
2021/07/20 02:20:13;;;;;;;0.90;0.90;;;16.30;73.40;;;;;;4919921;28;97448;-42
2021/07/20 02:23:04;;;;;;;0.80;0.80;;;16.30;73.40;;;;;;4941914;28;96009;-43
2021/07/20 02:25:38;;;;;;;0.80;0.80;;;16.40;73.50;;;;;;4943410;28;96638;-42
2021/07/20 02:28:29;;;;;;;0.93;0.93;;;16.50;73.50;;;;;;4936997;28;96309;-45
2021/07/20 02:31:04;;;;;;;0.90;0.80;;;16.50;73.60;;;;;;4929009;28;96779;-43
2021/07/20 02:33:40;;;;;;;1.42;1.08;;;16.50;73.60;;;;;;4941767;28;95861;-43
2021/07/20 02:36:14;;;;;;;0.82;0.70;;;16.60;73.70;;;;;;4933708;28;98452;-44
2021/07/20 02:38:46;;;;;;;0.80;0.80;;;16.60;73.90;;;;;;4940897;28;98233;-44
2021/07/20 02:41:24;;;;;;;0.80;0.80;;;16.60;73.90;;;;;;4934810;28;96015;-44
2021/07/20 02:43:58;;;;;;;0.80;0.70;;;16.70;74.00;;;;;;4942388;28;98874;-44
2021/07/20 02:46:31;;;;;;;1.10;1.00;;;16.70;74.00;;;;;;4936908;28;96155;-44
2021/07/20 02:49:04;;;;;;;0.90;0.88;;;16.70;74.00;;;;;;4932032;28;100398;-44
2021/07/20 02:51:36;;;;;;;1.23;0.90;;;16.80;74.20;;;;;;4934360;28;95344;-44
2021/07/20 02:54:08;;;;;;;1.00;0.88;;;16.80;74.10;;;;;;4937202;28;95905;-44
2021/07/20 02:56:41;;;;;;;1.75;0.95;;;16.80;74.10;;;;;;4926942;28;96533;-41
2021/07/20 02:59:18;;;;;;;0.57;0.57;;;16.80;74.20;;;;;;4946276;28;98475;-45
2021/07/20 03:02:06;;;;;;;0.95;0.73;;;16.90;74.20;;;;;;4922849;28;97030;-44
2021/07/20 03:04:41;;;;;;;1.55;0.80;;;16.90;74.20;;;;;;4932362;28;95592;-43
2021/07/20 03:07:19;;;;;;;0.90;0.90;;;16.90;74.30;;;;;;4941750;28;98159;-44
2021/07/20 03:09:51;;;;;;;0.70;0.70;;;17.00;74.30;;;;;;4941751;28;97824;-42
2021/07/20 03:12:26;;;;;;;1.33;0.70;;;17.00;74.30;;;;;;4925290;28;96179;-44
2021/07/20 03:15:01;;;;;;;0.88;0.70;;;17.00;74.30;;;;;;4934631;28;95850;-44
2021/07/20 03:17:45;;;;;;;0.73;0.73;;;17.00;74.30;;;;;;4931903;28;103236;-45
2021/07/20 03:20:16;;;;;;;0.70;0.70;;;17.10;74.30;;;;;;4923900;28;95656;-44
2021/07/20 03:22:50;;;;;;;1.10;0.82;;;17.00;73.40;;;;;;4934574;28;95672;-45
2021/07/20 03:25:23;;;;;;;1.00;0.80;;;17.00;73.10;;;;;;4932238;28;95932;-44
2021/07/20 03:27:56;;;;;;;1.10;0.90;;;17.00;72.40;;;;;;4940587;28;96165;-44
2021/07/20 03:30:32;;;;;;;3.25;0.77;;;16.90;72.00;;;;;;4940031;28;95822;-44
2021/07/20 03:33:11;;;;;;;0.95;0.85;;;16.80;72.10;;;;;;4932614;28;96538;-45
2021/07/20 03:36:09;;;;;;;1.75;1.10;;;16.60;72.30;;;;;;4938415;28;95795;-43
2021/07/20 03:38:42;;;;;;;2.35;1.10;;;16.50;72.50;;;;;;4939107;28;96977;-43
2021/07/20 03:41:14;;;;;;;1.23;0.88;;;16.40;72.60;;;;;;4940163;28;97532;-44
2021/07/20 03:43:49;;;;;;;2.67;0.80;;;16.40;72.90;;;;;;4935442;28;96248;-44
2021/07/20 03:46:20;;;;;;;0.75;0.75;;;16.30;73.00;;;;;;4935014;28;96420;-43
2021/07/20 03:48:54;;;;;;;1.08;0.80;;;16.20;73.00;;;;;;4935226;28;96891;-44
2021/07/20 03:51:44;;;;;;;0.80;0.60;;;16.20;73.10;;;;;;4938301;28;96578;-45
2021/07/20 03:54:14;;;;;;;;;;;16.20;73.00;;;;;;4942572;28;95951;-43
2021/07/20 03:56:45;;;;;;;0.88;0.88;;;16.20;72.80;;;;;;4940755;28;96064;-44
2021/07/20 03:59:21;;;;;;;1.50;0.65;;;16.20;72.70;;;;;;4924337;28;98424;-45
2021/07/20 04:02:22;;;;;;;0.82;0.60;;;16.20;72.90;;;;;;4933429;28;95888;-44
2021/07/20 04:04:59;;;;;;;0.63;0.55;;;16.10;72.80;;;;;;4943115;28;95917;-44
2021/07/20 04:07:34;;;;;;;0.82;0.70;;;16.00;73.10;;;;;;4938219;28;95804;-44
2021/07/20 04:10:14;;;;;;;2.05;0.77;;;16.00;73.00;;;;;;4941453;28;96289;-45
2021/07/20 04:12:47;;;;;;;2.80;0.70;;;16.10;72.90;;;;;;4938037;28;96057;-44
2021/07/20 04:16:02;;;;;;;0.75;0.55;;;16.10;72.80;;;;;;4933638;28;96169;-44
2021/07/20 04:18:37;;;;;;;0.55;0.52;;;16.10;72.70;;;;;;4929559;28;96253;-45
2021/07/20 04:21:13;;;;;;;0.40;0.40;;;16.10;72.70;;;;;;4924901;28;97274;-45
2021/07/20 04:23:45;;;;;;;0.60;0.60;;;16.10;73.20;;;;;;4937644;28;97722;-45
2021/07/20 04:26:28;;;;;;;7.90;0.80;;;16.20;72.60;;;;;;4942664;28;96822;-44
2021/07/20 04:28:59;;;;;;;1.45;0.82;;;16.10;72.50;;;;;;4939109;28;96166;-44
2021/07/20 04:31:32;;;;;;;2.13;0.77;;;16.20;72.70;;;;;;4920272;28;96944;-44
2021/07/20 04:34:04;;;;;;;3.08;0.70;;;16.20;73.30;;;;;;4937804;28;95797;-44
2021/07/20 04:36:40;;;;;;;0.70;0.60;;;16.20;73.70;;;;;;4939900;28;95653;-45
2021/07/20 04:39:29;;;;;;;0.60;0.50;;;16.20;73.60;;;;;;4940851;28;96192;-44
2021/07/20 04:42:06;;;;;;;0.90;0.50;;;16.30;73.20;;;;;;4943003;28;96652;-45
2021/07/20 04:44:40;;;;;;;1.25;0.50;;;16.20;72.90;;;;;;4943152;28;98551;-45
2021/07/20 04:47:36;;;;;;;1.50;0.73;;;16.30;73.10;;;;;;4937983;28;96271;-45
2021/07/20 04:50:28;;;;;;;0.70;0.40;;;16.30;73.10;;;;;;4934707;28;95558;-44
2021/07/20 04:53:03;;;;;;;0.73;0.73;;;16.30;73.00;;;;;;4946420;28;97965;-45
2021/07/20 04:55:35;;;;;;;1.25;0.47;;;16.40;73.00;;;;;;4941489;28;97588;-45
2021/07/20 04:58:08;;;;;;;1.23;0.68;;;16.40;73.00;;;;;;4936637;28;97096;-45
2021/07/20 05:00:40;;;;;;;0.82;0.80;;;16.40;72.90;;;;;;4928986;28;95966;-45
2021/07/20 05:03:14;;;;;;;4.43;1.42;;;16.40;72.90;;;;;;4946568;28;96108;-46
2021/07/20 05:05:46;;;;;;;1.50;1.05;;;16.50;73.00;;;;;;4937024;28;98274;-46
2021/07/20 05:08:18;;;;;;;;;;;16.50;72.90;;;;;;4928751;28;96826;-45
2021/07/20 05:10:59;;;;;;;1.35;0.60;;;16.50;72.70;;;;;;4941485;28;95776;-45
2021/07/20 05:13:35;;;;;;;1.40;0.80;;;16.50;72.90;;;;;;4928115;28;96200;-43
2021/07/20 05:16:08;;;;;;;2.38;1.05;;;16.50;72.90;;;;;;4938268;28;97898;-46
2021/07/20 05:18:52;;;;;;;2.45;1.38;;;16.50;72.90;;;;;;4942354;28;96536;-45
2021/07/20 05:21:43;;;;;;;3.35;1.13;;;16.50;73.10;;;;;;4941858;28;95646;-46
2021/07/20 05:24:19;;;;;;;2.80;1.00;;;16.50;73.10;;;;;;4944327;28;95973;-44
2021/07/20 05:27:03;;;;;;;2.42;1.17;;;16.60;73.00;;;;;;4939108;28;98208;-44
2021/07/20 05:29:36;;;;;;;3.00;1.08;;;16.60;73.00;;;;;;4946346;28;95684;-43
2021/07/20 05:32:20;;;;;;;2.25;1.00;;;16.70;73.10;;;;;;4939968;28;96425;-45
2021/07/20 05:34:54;;;;;;;3.17;1.05;;;16.70;72.70;;;;;;4945039;28;96072;-42
2021/07/20 05:37:26;;;;;;;4.47;1.83;;;16.70;72.70;;;;;;4942127;28;96918;-44
2021/07/20 05:40:00;;;;;;;2.95;1.30;;;16.70;72.50;;;;;;4933758;28;95907;-43
2021/07/20 05:42:41;;;;;;;2.95;1.20;;;16.60;72.40;;;;;;4942914;28;97099;-42
2021/07/20 05:45:23;;;;;;;3.70;1.52;;;16.60;72.30;;;;;;4942099;28;96827;-43
2021/07/20 05:47:57;;;;;;;2.38;1.15;;;16.70;71.90;;;;;;4932575;28;101838;-43
2021/07/20 05:50:41;;;;;;;3.80;1.52;;;16.70;71.50;;;;;;4932058;28;95834;-44
2021/07/20 05:53:33;;;;;;;2.95;1.67;;;16.70;71.40;;;;;;4940687;28;96256;-43
2021/07/20 05:56:31;;;;;;;5.43;1.75;;;16.60;71.40;;;;;;4939595;28;96330;-44
2021/07/20 05:59:13;;;;;;;5.15;1.70;;;16.70;71.50;;;;;;4934257;28;96552;-42
2021/07/20 06:01:48;;;;;;;5.30;1.98;;;16.70;71.40;;;;;;4934428;28;95842;-43
2021/07/20 06:04:20;;;;;;;3.08;1.55;;;16.70;71.40;;;;;;4943697;28;95836;-44
2021/07/20 06:06:51;;;;;;;2.88;1.55;;;16.70;71.30;;;;;;4942960;28;96222;-45
2021/07/20 06:09:23;;;;;;;4.73;1.60;;;16.80;71.20;;;;;;4945004;28;95830;-44
2021/07/20 06:11:57;;;;;;;4.28;1.55;;;16.90;71.20;;;;;;4941515;28;95890;-44
2021/07/20 06:14:32;;;;;;;4.63;1.40;;;16.90;71.00;;;;;;4943218;28;95817;-45
2021/07/20 06:17:05;;;;;;;4.45;1.75;;;16.90;71.00;;;;;;4936794;28;97107;-45
2021/07/20 06:19:39;;;;;;;5.40;2.05;;;17.00;71.00;;;;;;4944670;28;97467;-44
2021/07/20 06:22:11;;;;;;;3.45;1.63;;;16.90;71.00;;;;;;4945785;28;95813;-44
2021/07/20 06:24:58;;;;;;;4.35;1.60;;;17.00;71.00;;;;;;4927367;28;96127;-44
2021/07/20 06:27:31;;;;;;;3.17;1.55;;;17.00;70.80;;;;;;4942153;28;96412;-43
2021/07/20 06:30:05;;;;;;;3.45;2.17;;;17.10;71.60;;;;;;4942080;28;96730;-45
2021/07/20 06:32:37;;;;;;;4.13;1.70;;;17.10;71.00;;;;;;4940271;28;95735;-45
2021/07/20 06:35:13;;;;;;;5.70;2.13;;;17.10;71.00;;;;;;4943341;28;95887;-45
2021/07/20 06:37:47;;;;;;;6.10;2.33;;;17.10;71.10;;;;;;4944595;28;95897;-44
2021/07/20 06:40:20;;;;;;;4.32;2.00;;;17.10;71.20;;;;;;4942696;28;96680;-45
2021/07/20 06:42:55;;;;;;;6.88;2.40;;;17.10;71.40;;;;;;4944106;28;95803;-44
2021/07/20 06:45:31;;;;;;;4.13;1.88;;;17.10;71.40;;;;;;4935680;28;95308;-44
2021/07/20 06:48:01;;;;;;;4.95;1.70;;;17.10;71.40;;;;;;4932363;28;97062;-43
2021/07/20 06:50:31;;;;;;;4.80;2.53;;;17.00;71.30;;;;;;4939723;28;96595;-44
2021/07/20 06:53:02;;;;;;;6.28;1.60;;;17.00;71.40;;;;;;4944888;28;97153;-44
2021/07/20 06:55:35;;;;;;;6.07;1.95;;;17.00;71.30;;;;;;4942561;28;96298;-44
2021/07/20 06:58:06;;;;;;;4.47;1.90;;;17.00;71.30;;;;;;4943269;28;97017;-44
2021/07/20 07:00:38;;;;;;;3.78;2.00;;;17.00;71.50;;;;;;4936770;28;96497;-44
2021/07/20 07:03:15;;;;;;;3.42;2.03;;;17.00;71.10;;;;;;4943136;28;96149;-45
2021/07/20 07:05:48;;;;;;;2.85;1.77;;;17.10;71.00;;;;;;4940147;28;96358;-44
2021/07/20 07:08:21;;;;;;;4.55;1.67;;;17.20;70.70;;;;;;4942385;28;96167;-45
2021/07/20 07:10:54;;;;;;;3.08;1.63;;;17.20;70.70;;;;;;4939795;28;95990;-44
2021/07/20 07:13:29;;;;;;;4.53;1.85;;;17.20;70.80;;;;;;4942258;28;96180;-43
2021/07/20 07:16:01;;;;;;;6.15;1.80;;;17.20;70.80;;;;;;4937015;28;97801;-43
2021/07/20 07:18:33;;;;;;;3.42;1.80;;;17.20;71.00;;;;;;4943345;28;96532;-42
2021/07/20 07:21:06;;;;;;;5.93;1.85;;;17.20;71.00;;;;;;4939439;28;96319;-45
2021/07/20 07:23:39;;;;;;;5.82;1.77;;;17.20;71.10;;;;;;4942584;28;95377;-43
2021/07/20 07:26:14;;;;;;;5.72;1.45;;;17.20;70.90;;;;;;4940215;28;96473;-44
2021/07/20 07:28:48;;;;;;;2.85;1.55;;;17.30;71.00;;;;;;4943688;28;96511;-44
2021/07/20 07:31:21;;;;;;;10.02;1.60;;;17.30;71.10;;;;;;4936936;28;95901;-44
2021/07/20 07:33:52;;;;;;;3.30;1.40;;;17.30;71.00;;;;;;4942822;28;97752;-45
2021/07/20 07:36:25;;;;;;;5.85;1.40;;;17.30;71.10;;;;;;4938728;28;103021;-44
2021/07/20 07:39:02;;;;;;;2.58;1.17;;;17.30;71.00;;;;;;4942870;28;96602;-45
2021/07/20 07:41:37;;;;;;;5.82;1.38;;;17.30;71.00;;;;;;4940931;28;96717;-44
2021/07/20 07:44:19;;;;;;;2.53;1.20;;;17.30;70.90;;;;;;4943677;28;95421;-44
2021/07/20 07:46:51;;;;;;;3.13;1.60;;;17.30;71.00;;;;;;4934164;28;96537;-43
2021/07/20 07:49:22;;;;;;;2.35;1.58;;;17.30;70.90;;;;;;4936795;28;96187;-45
2021/07/20 07:51:53;;;;;;;2.90;1.23;;;17.20;70.90;;;;;;4941505;28;96111;-44
2021/07/20 07:54:24;;;;;;;2.30;1.20;;;17.20;70.70;;;;;;4944714;28;95987;-43
2021/07/20 07:56:55;;;;;;;3.22;1.40;;;17.10;70.80;;;;;;4942911;28;96688;-44
2021/07/20 07:59:29;;;;;;;6.38;1.83;;;17.10;70.80;;;;;;4944464;28;96754;-44
2021/07/20 08:02:02;;;;;;;5.63;1.80;;;17.10;70.90;;;;;;4936721;28;95816;-44
2021/07/20 08:04:36;;;;;;;5.72;1.33;;;17.00;70.80;;;;;;4934018;28;95877;-44
2021/07/20 08:07:07;;;;;;;2.63;1.30;;;17.10;70.80;;;;;;4940425;28;95957;-45
2021/07/20 08:09:38;;;;;;;5.22;1.60;;;17.10;70.60;;;;;;4942319;28;95882;-45
2021/07/20 08:12:09;;;;;;;2.72;1.10;;;17.10;70.70;;;;;;4938952;28;95727;-44
2021/07/20 08:14:43;;;;;;;2.78;1.27;;;17.00;70.60;;;;;;4943552;28;96020;-42
2021/07/20 08:17:15;;;;;;;3.58;1.92;;;17.00;70.70;;;;;;4936333;28;98364;-44
2021/07/20 08:19:47;;;;;;;3.25;1.42;;;17.00;71.40;;;;;;4943806;28;96694;-43
2021/07/20 08:22:19;;;;;;;3.00;1.20;;;17.00;70.80;;;;;;4940326;28;96656;-43
2021/07/20 08:25:00;;;;;;;3.42;1.48;;;16.90;71.00;;;;;;4942311;28;95840;-44
2021/07/20 08:27:50;;;;;;;3.67;1.27;;;16.90;70.90;;;;;;4938272;28;95970;-45
2021/07/20 08:30:23;;;;;;;3.72;1.23;;;16.90;70.90;;;;;;4939746;28;96459;-42
2021/07/20 08:32:58;;;;;;;4.40;1.40;;;16.90;70.80;;;;;;4929531;28;97344;-44
2021/07/20 08:35:36;;;;;;;2.63;1.10;;;16.80;70.90;;;;;;4943589;28;95920;-44
2021/07/20 08:38:14;;;;;;;2.25;1.20;;;16.90;71.10;;;;;;4941569;28;95820;-42
2021/07/20 08:40:55;;;;;;;3.47;1.63;;;16.80;71.10;;;;;;4927011;28;96088;-44
2021/07/20 08:43:55;;;;;;;8.55;1.73;;;16.80;71.20;;;;;;4937876;28;96121;-44
2021/07/20 08:46:38;;;;;;;2.78;1.95;;;16.80;71.40;;;;;;4937224;28;98209;-44
2021/07/20 08:49:29;;;;;;;3.22;1.63;;;16.70;71.60;;;;;;4934768;28;97741;-43
2021/07/20 08:52:18;;;;;;;3.42;1.40;;;16.60;71.50;;;;;;4943324;28;97209;-44
2021/07/20 08:55:01;;;;;;;5.75;1.60;;;16.60;71.60;;;;;;4929627;28;98101;-44
2021/07/20 08:57:49;;;;;;;2.30;1.30;;;16.50;71.50;;;;;;4944173;28;95687;-41
2021/07/20 09:00:24;;;;;;;4.65;1.48;;;16.50;71.50;;;;;;4935060;28;96375;-44
2021/07/20 09:03:09;;;;;;;3.85;1.77;;;16.50;71.50;;;;;;4942965;28;96460;-43
2021/07/20 09:05:47;;;;;;;2.47;1.27;;;16.50;71.60;;;;;;4945277;28;99765;-43
2021/07/20 09:08:37;;;;;;;2.33;1.45;;;16.40;71.60;;;;;;4949022;28;95940;-44
2021/07/20 09:11:26;;;;;;;3.63;1.27;;;16.30;71.50;;;;;;4947028;28;95655;-44
2021/07/20 09:14:03;;;;;;;3.45;1.50;;;16.30;72.00;;;;;;4945379;28;96782;-45
2021/07/20 09:16:41;;;;;;;3.65;1.48;;;16.20;72.20;;;;;;4942646;28;95794;-45
2021/07/20 09:19:31;;;;;;;4.13;1.30;;;16.20;71.80;;;;;;4944396;28;95637;-42
2021/07/20 09:22:11;;;;;;;4.57;2.10;;;16.20;71.70;;;;;;4945977;28;95925;-44
2021/07/20 09:24:53;;;;;;;2.40;1.25;;;16.30;71.80;;;;;;4945125;28;96230;-44
2021/07/20 09:27:47;;;;;;;3.42;1.30;;;16.30;71.80;;;;;;4948258;28;95448;-44
2021/07/20 09:30:28;;;;;;;3.13;1.60;;;16.30;71.30;;;;;;4945388;28;98419;-44
2021/07/20 09:33:33;;;;;;;3.90;1.58;;;16.40;71.20;;;;;;4947413;28;96208;-42
2021/07/20 09:36:25;;;;;;;1.88;0.88;;;16.40;71.20;;;;;;4947291;28;95865;-44
2021/07/20 09:39:04;;;;;;;1.77;1.27;;;16.50;71.40;;;;;;4950467;28;95943;-44
2021/07/20 09:41:52;;;;;;;5.00;1.40;;;16.50;71.20;;;;;;4927697;28;95780;-44
2021/07/20 09:44:31;;;;;;;2.35;1.30;;;16.40;71.20;;;;;;4951014;28;95770;-43
2021/07/20 09:47:26;;;;;;;1.50;1.00;;;16.40;71.20;;;;;;4937527;28;97908;-44
2021/07/20 09:50:10;;;;;;;5.13;1.50;;;16.50;71.80;;;;;;4944836;28;96557;-43
2021/07/20 09:52:56;;;;;;;2.33;1.42;;;16.50;71.90;;;;;;4948679;28;95498;-44
2021/07/20 09:56:08;;;;;;;3.83;1.45;;;16.60;72.00;;;;;;4952631;28;95895;-44
2021/07/20 09:59:06;;;;;;;3.28;1.30;;;16.60;71.40;;;;;;4933695;28;97235;-44
2021/07/20 10:01:46;;;;;;;6.18;1.60;;;16.50;71.10;;;;;;4942485;28;95431;-42
2021/07/20 10:04:29;;;;;;;2.83;1.20;;;16.50;70.90;;;;;;4948230;28;95681;-43
2021/07/20 10:07:30;;;;;;;9.20;1.80;;;16.50;71.10;;;;;;4945406;28;96483;-42
2021/07/20 10:10:15;;;;;;;4.55;1.58;;;16.50;70.70;;;;;;4949843;28;96666;-46
2021/07/20 10:13:07;;;;;;;5.78;2.08;;;16.50;70.50;;;;;;4945685;28;95862;-44
2021/07/20 10:16:22;;;;;;;6.38;2.28;;;16.40;70.30;;;;;;4928919;28;97832;-45
2021/07/20 10:19:07;;;;;;;4.10;2.10;;;16.40;70.30;;;;;;4921840;28;95523;-44
2021/07/20 10:21:42;;;;;;;6.38;1.77;;;16.40;70.30;;;;;;4945515;28;96791;-44
2021/07/20 10:24:20;;;;;;;4.95;1.70;;;16.40;70.20;;;;;;4947909;28;95351;-44
2021/07/20 10:27:26;;;;;;;4.75;1.85;;;16.30;70.10;;;;;;4946940;28;95706;-42
2021/07/20 10:30:09;;;;;;;4.60;1.90;;;16.20;70.20;;;;;;4944917;28;95961;-44
2021/07/20 10:33:17;;;;;;;3.85;1.60;;;16.20;70.20;;;;;;4945640;28;96580;-45
2021/07/20 10:36:05;;;;;;;3.67;2.03;;;16.20;70.40;;;;;;4949791;28;95822;-45
2021/07/20 10:39:08;;;;;;;3.22;1.38;;;16.20;70.50;;;;;;4945769;28;95826;-44
2021/07/20 10:42:08;;;;;;;5.55;2.10;;;16.10;70.50;;;;;;4947779;28;95811;-45
2021/07/20 10:44:59;;;;;;;4.10;2.03;;;16.20;70.60;;;;;;4945894;28;96514;-44
2021/07/20 10:47:50;;;;;;;2.55;1.38;;;16.10;70.80;;;;;;4943279;28;95589;-45
2021/07/20 10:50:45;;;;;;;4.35;1.67;;;16.10;70.80;;;;;;4947979;28;98197;-43
2021/07/20 10:53:27;;;;;;;3.63;1.40;;;16.00;71.20;;;;;;4946148;28;95733;-44
2021/07/20 10:56:29;;;;;;;4.70;1.40;;;15.90;71.20;;;;;;4947964;28;96020;-43
2021/07/20 10:59:29;;;;;;;2.88;1.30;;;16.00;71.00;;;;;;4932156;28;96694;-42
2021/07/20 11:02:03;;;;;;;4.32;1.25;;;15.90;72.10;;;;;;4938182;28;96051;-45
2021/07/20 11:04:50;;;;;;;4.00;1.33;;;15.80;72.40;;;;;;4940980;28;97025;-46
2021/07/20 11:07:43;;;;;;;4.60;1.48;;;15.90;72.30;;;;;;4943332;28;96555;-46
2021/07/20 11:10:30;;;;;;;3.28;1.42;;;15.90;72.50;;;;;;4939757;28;95894;-45
2021/07/20 11:13:16;;;;;;;3.08;1.48;;;15.90;72.30;;;;;;4924839;28;95828;-46
2021/07/20 11:15:55;;;;;;;3.38;2.00;;;15.90;73.30;;;;;;4936449;28;95888;-45
2021/07/20 11:18:41;;;;;;;5.38;2.08;;;15.80;73.10;;;;;;4942817;28;96557;-46
2021/07/20 11:21:16;;;;;;;4.82;1.80;;;15.80;73.30;;;;;;4940506;28;96182;-45
2021/07/20 11:23:49;;;;;;;4.00;2.10;;;15.80;73.30;;;;;;4942998;28;96066;-45
2021/07/20 11:26:20;;;;;;;3.92;1.95;;;15.80;73.30;;;;;;4939314;28;95932;-46
2021/07/20 11:28:51;;;;;;;3.20;2.22;;;15.70;73.30;;;;;;4941272;28;96532;-45
2021/07/20 11:31:33;;;;;;;4.75;2.08;;;15.70;73.30;;;;;;4933723;28;95734;-45
2021/07/20 11:34:25;;;;;;;4.78;2.05;;;15.70;73.20;;;;;;4943580;28;96062;-45
2021/07/20 11:37:02;;;;;;;3.60;1.88;;;15.60;73.20;;;;;;4940535;28;95968;-45
2021/07/20 11:39:38;;;;;;;4.18;2.13;;;15.60;73.20;;;;;;4942530;28;96497;-46
2021/07/20 11:42:28;;;;;;;6.00;2.38;;;15.60;73.20;;;;;;4939223;28;101432;-44
2021/07/20 11:45:03;;;;;;;4.28;1.60;;;15.50;73.10;;;;;;4941235;28;96579;-45
2021/07/20 11:47:50;;;;;;;3.30;1.80;;;15.50;73.00;;;;;;4928832;28;96256;-46
2021/07/20 11:50:38;;;;;;;3.28;1.95;;;15.50;72.90;;;;;;4941794;28;95944;-46
2021/07/20 11:53:45;;;;;;;4.85;2.28;;;15.50;73.60;;;;;;4941901;28;96732;-47
2021/07/20 11:56:16;;;;;;;4.70;2.00;;;15.40;73.10;;;;;;4942153;28;96076;-45
2021/07/20 11:59:16;;;;;;;4.72;1.95;;;15.40;73.00;;;;;;4944321;28;96007;-44
2021/07/20 12:02:04;;;;;;;4.00;2.00;;;15.30;72.90;;;;;;4918775;28;96462;-46
2021/07/20 12:05:15;;;;;;;4.43;2.38;;;15.30;72.80;;;;;;4941805;28;95932;-47
2021/07/20 12:07:55;;;;;;;2.13;1.77;;;15.30;72.90;;;;;;4941255;28;95927;-44
2021/07/20 12:11:02;;;;;;;3.53;1.85;;;15.30;72.90;;;;;;4944177;28;95392;-45
2021/07/20 12:13:37;;;;;;;4.95;1.92;;;15.30;72.90;;;;;;4939765;28;95939;-47
2021/07/20 12:16:14;;;;;;;3.05;1.75;;;15.20;72.90;;;;;;4928854;28;97906;-45
2021/07/20 12:18:54;;;;;;;4.28;1.90;;;15.20;72.90;;;;;;4938350;28;95994;-45
2021/07/20 12:21:26;;;;;;;3.38;1.60;;;15.20;73.00;;;;;;4942316;28;95851;-45
2021/07/20 12:24:04;;;;;;;3.13;1.70;;;15.10;72.90;;;;;;4940831;28;96431;-45
2021/07/20 12:26:35;;;;;;;4.25;2.33;;;15.10;72.90;;;;;;4943131;28;95906;-45
2021/07/20 12:29:08;;;;;;;3.00;1.80;;;15.10;72.90;;;;;;4941815;28;96477;-45
2021/07/20 12:31:40;;;;;;;4.88;1.95;;;15.00;72.90;;;;;;4937394;28;95851;-46
2021/07/20 12:34:12;;;;;;;3.72;1.80;;;15.00;73.00;;;;;;4940070;28;96049;-45
2021/07/20 12:36:45;;;;;;;3.90;1.83;;;15.00;73.00;;;;;;4941805;28;96611;-46
2021/07/20 12:39:23;;;;;;;3.72;1.50;;;15.00;73.10;;;;;;4939728;28;96036;-45
2021/07/20 12:41:56;;;;;;;3.80;1.77;;;15.00;73.10;;;;;;4943162;28;95985;-45
2021/07/20 12:44:37;;;;;;;2.67;1.85;;;15.00;73.00;;;;;;4940242;28;96100;-45
2021/07/20 12:47:11;;;;;;;2.92;1.73;;;15.00;73.00;;;;;;4931395;28;96661;-45
2021/07/20 12:49:45;;;;;;;3.08;2.05;;;14.90;72.90;;;;;;4936252;28;95990;-45
2021/07/20 12:52:17;;;;;;;2.78;1.55;;;14.90;73.00;;;;;;4944366;28;96026;-45
2021/07/20 12:54:47;;;;;;;2.03;1.50;;;14.90;73.00;;;;;;4939931;28;95921;-45
2021/07/20 12:57:19;;;;;;;3.70;1.85;;;14.90;72.90;;;;;;4944004;28;96137;-45
2021/07/20 13:00:11;;;;;;;2.70;1.35;;;14.90;72.90;;;;;;4936031;28;95704;-45
2021/07/20 13:02:42;;;;;;;3.25;1.70;;;14.90;73.00;;;;;;4944007;28;96196;-46
2021/07/20 13:05:15;;;;;;;3.92;1.30;;;14.80;72.80;;;;;;4948538;28;95982;-45
2021/07/20 13:07:46;;;;;;;1.67;1.30;;;14.70;72.60;;;;;;4951589;28;95724;-46
2021/07/20 13:10:17;;;;;;;4.63;1.60;;;14.70;72.80;;;;;;4947757;28;95886;-43
2021/07/20 13:12:48;;;;;;;;;;;14.70;72.80;;;;;;4951787;28;95982;-44
2021/07/20 13:15:22;;;;;;;2.73;1.40;;;14.70;73.00;;;;;;4947664;28;95879;-47
2021/07/20 13:17:56;;;;;;;3.65;1.70;;;14.70;72.90;;;;;;4951324;28;102943;-44
2021/07/20 13:20:31;;;;;;;4.38;1.58;;;14.60;73.10;;;;;;4948801;28;95265;-46
2021/07/20 13:23:03;;;;;;;4.93;1.48;;;14.60;73.20;;;;;;4950175;28;95880;-45
2021/07/20 13:25:34;;;;;;;3.95;1.83;;;14.50;73.10;;;;;;4947778;28;96492;-45
2021/07/20 13:28:05;;;;;;;3.33;2.15;;;14.50;73.30;;;;;;4932510;28;96183;-46
2021/07/20 13:30:35;;;;;;;1.75;1.42;;;14.50;73.30;;;;;;4944875;28;101880;-46
2021/07/20 13:33:06;;;;;;;3.63;1.50;;;14.40;73.30;;;;;;4951856;28;95504;-46
2021/07/20 13:35:37;;;;;;;2.22;1.48;;;14.40;73.40;;;;;;4948238;28;96037;-44
2021/07/20 13:38:09;;;;;;;3.05;1.48;;;14.40;73.30;;;;;;4948946;28;96146;-46
2021/07/20 13:40:41;;;;;;;1.98;1.30;;;14.40;73.50;;;;;;4949784;28;95927;-45
2021/07/20 13:43:13;;;;;;;4.18;2.00;;;14.30;73.60;;;;;;4946189;28;95783;-45
2021/07/20 13:45:43;;;;;;;;;;;14.30;73.60;;;;;;4945555;28;97022;-44
2021/07/20 13:48:17;;;;;;;2.88;1.70;;;14.20;73.60;;;;;;4946709;28;95868;-45
2021/07/20 13:50:50;;;;;;;3.33;1.50;;;14.20;73.60;;;;;;4949727;28;95431;-46
2021/07/20 13:53:24;;;;;;;2.70;1.48;;;14.20;73.80;;;;;;4952907;28;95793;-45